Terminal Aerodrome Forecast
Issued by NWS

Home | Current Version | Previous Version | Text Only | Print | Product List | Glossary On
Versions: 1 2 3 4 5 6 7 8 9 10 11 12 13 14 15 16 17 18 19
000
FTUS46 KSEW 222330
TAFHQM
TAF
KHQM 222330Z 2300/2324 22011KT P6SM OVC009
      TEMPO 2300/2303 SCT010
     FM230300 25006KT P6SM OVC006
     FM230900 25004KT 4SM BR OVC003
      TEMPO 2311/2315 1/2SM FG VV001
     FM232000 23010KT P6SM SCT007 OVC020=

USA.gov is the U.S. government's official web portal to all federal, state and local government web resources and services.